KSEA/SEA METAR and TAF weather

Enter ICAO airport designator
Station Type Date Time Source
KSEA METAR 2022/06/27 08:53 UTC NOAA

KSEA 270853Z 03005KT 10SM CLR 21/09 A2997 RMK AO2 SLP150 T02060094 50001


Station Type Date Time Source
KSEA Decoded METAR 2022/06/27 08:53 UTC NOAA

SEATTLE-TACOMA INTERNATIONAL AIRPORT , WA, United States (KSEA) 47-27N 122-19W 136M
Jun 27, 2022 - 04:53 AM EDT / 2022.06.27 0853 UTC
Wind: from the NNE (030 degrees) at 6 MPH (5 KT):0
Visibility: 10 mile(s):0
Sky conditions: clear
Temperature: 69.1 F (20.6 C)
Dew Point: 48.9 F (9.4 C)
Relative Humidity: 48%
Pressure (altimeter): 29.97 in. Hg (1014 hPa)
Pressure tendency: 0.00 inches (0.1 hPa) higher than three hours ago
ob: KSEA 270853Z 03005KT 10SM CLR 21/09 A2997 RMK AO2 SLP150 T02060094 50001
cycle: 9

Station Type Date Time Source
KSEA TAF 2022/06/27 09:54 UTC NOAA

TAF
AMD KSEA 270853Z 2709/2812 36006KT P6SM SKC
FM271800 23006KT P6SM SKC
FM280300 24010KT P6SM FEW120 SCT200

Example: see airport list